Time;durP1;ratioP1;P1;durP2;ratioP2;P2;SDS_P1;SDS_P2;PMS_P1;PMS_P2;Temp;Humidity;BMP_temperature;BMP_pressure;BME280_temperature;BME280_humidity;BME280_pressure;Samples;Min_cycle;Max_cycle;Signal;HPM_P1;HPM_P2
2022/01/02 00:02:06;;;;;;;12.82;9.23;;;;;;;9.17;98.42;95183.84;5136181;27;20432;-70
2022/01/02 00:04:35;;;;;;;12.05;8.93;;;;;;;9.23;98.31;95187.41;5137160;27;20176;-69
2022/01/02 00:07:05;;;;;;;10.23;8.55;;;;;;;9.51;95.92;95189.94;5136808;27;20019;-69
2022/01/02 00:09:35;;;;;;;10.38;8.45;;;;;;;9.50;95.40;95193.88;5136676;27;20034;-70
2022/01/02 00:12:26;;;;;;;10.95;8.48;;;;;;;9.28;96.75;95192.97;5136659;27;20102;-70
2022/01/02 00:14:54;;;;;;;11.00;8.68;;;;;;;9.14;98.09;95197.09;5136989;27;20023;-69
2022/01/02 00:17:23;;;;;;;13.02;8.80;;;;;;;9.38;97.38;95198.31;5136573;27;20110;-70
2022/01/02 00:19:54;;;;;;;10.45;8.00;;;;;;;9.29;97.02;95191.00;5136545;27;20019;-70
2022/01/02 00:22:27;;;;;;;11.50;8.60;;;;;;;9.26;97.26;95192.66;5136545;27;20371;-69
2022/01/02 00:24:54;;;;;;;12.07;8.25;;;;;;;9.25;97.54;95195.84;5136469;27;20079;-69
2022/01/02 00:27:20;;;;;;;12.38;8.50;;;;;;;9.15;97.87;95197.84;5136655;27;20464;-70
2022/01/02 00:29:46;;;;;;;10.85;8.75;;;;;;;9.41;96.37;95206.25;5136564;27;20375;-69
2022/01/02 00:32:12;;;;;;;12.88;9.50;;;;;;;9.25;96.87;95187.72;5136352;27;20022;-70
2022/01/02 00:34:39;;;;;;;11.73;8.35;;;;;;;9.20;97.17;95194.50;5136595;27;20031;-70
2022/01/02 00:37:05;;;;;;;11.00;8.48;;;;;;;9.39;96.17;95188.97;5136262;27;20099;-70
2022/01/02 00:39:32;;;;;;;11.77;9.65;;;;;;;9.09;97.39;95194.28;5134894;27;20041;-70
2022/01/02 00:42:07;;;;;;;10.27;8.43;;;;;;;9.19;97.29;95186.84;5136089;27;20027;-69
2022/01/02 00:44:45;;;;;;;11.63;7.90;;;;;;;9.18;97.19;95191.53;5136379;27;20026;-70
2022/01/02 00:47:30;;;;;;;10.20;8.38;;;;;;;9.13;97.12;95189.44;5136519;27;20376;-70
2022/01/02 00:50:04;;;;;;;12.70;8.15;;;;;;;9.24;96.28;95186.97;5136514;27;20094;-70
2022/01/02 00:52:37;;;;;;;9.05;7.43;;;;;;;9.22;95.56;95181.25;5134920;27;20031;-70
2022/01/02 00:55:09;;;;;;;11.80;8.02;;;;;;;9.14;96.30;95188.97;5136398;27;20064;-70
2022/01/02 00:57:37;;;;;;;12.82;8.52;;;;;;;9.19;95.98;95187.59;5135693;27;20057;-70
2022/01/02 01:00:12;;;;;;;11.57;8.05;;;;;;;9.39;94.68;95194.41;5136184;27;20023;-70
2022/01/02 01:02:45;;;;;;;9.68;7.45;;;;;;;9.30;94.88;95193.25;5136044;27;20375;-69
2022/01/02 01:05:17;;;;;;;10.90;7.75;;;;;;;9.21;95.11;95187.13;5135952;27;20084;-70
2022/01/02 01:07:43;;;;;;;10.15;8.05;;;;;;;9.40;93.99;95182.34;5135968;27;20377;-70
2022/01/02 01:10:11;;;;;;;11.25;8.35;;;;;;;9.26;94.39;95200.06;5135527;27;20042;-69
2022/01/02 01:12:37;;;;;;;10.82;7.07;;;;;;;9.25;94.15;95199.28;5135498;27;20031;-70
2022/01/02 01:15:06;;;;;;;8.63;6.85;;;;;;;9.16;94.06;95188.50;5135479;27;20395;-70
2022/01/02 01:17:32;;;;;;;9.50;7.55;;;;;;;9.21;93.91;95204.13;5135452;27;20091;-69
2022/01/02 01:19:58;;;;;;;8.45;7.00;;;;;;;9.20;94.00;95201.88;5135359;27;20033;-70
2022/01/02 01:22:24;;;;;;;9.07;7.40;;;;;;;9.17;94.18;95208.22;5135379;27;20022;-69
2022/01/02 01:24:50;;;;;;;8.90;7.07;;;;;;;9.21;94.13;95201.41;5135244;27;20026;-69
2022/01/02 01:27:15;;;;;;;10.07;7.43;;;;;;;9.24;93.11;95195.09;5134163;27;20084;-70
2022/01/02 01:29:41;;;;;;;11.85;7.25;;;;;;;9.24;93.00;95189.69;5135068;27;20027;-69
2022/01/02 01:32:08;;;;;;;10.10;7.47;;;;;;;9.20;93.02;95189.09;5135362;27;20029;-69
2022/01/02 01:34:34;;;;;;;11.27;7.20;;;;;;;9.10;93.74;95187.66;5135334;27;20042;-69
2022/01/02 01:37:00;;;;;;;8.95;6.88;;;;;;;9.13;93.60;95194.84;5135527;27;20023;-69
2022/01/02 01:39:26;;;;;;;11.52;7.25;;;;;;;9.15;93.33;95189.75;5134991;27;20037;-69
2022/01/02 01:41:54;;;;;;;8.13;6.70;;;;;;;9.36;91.59;95184.50;5133971;27;20102;-69
2022/01/02 01:46:48;;;;;;;8.18;6.30;;;;;;;9.45;90.25;95196.00;5134828;27;20023;-70
2022/01/02 01:49:31;;;;;;;9.30;6.53;;;;;;;9.28;90.89;95194.91;5135083;27;20053;-69
2022/01/02 01:51:57;;;;;;;8.75;6.50;;;;;;;9.39;90.42;95186.25;5134720;27;20019;-69
2022/01/02 01:54:23;;;;;;;9.73;6.13;;;;;;;9.33;90.70;95197.00;5134618;27;20027;-69
2022/01/02 01:56:52;;;;;;;6.70;5.40;;;;;;;9.29;90.52;95191.75;5134507;27;20535;-69
2022/01/02 01:59:22;;;;;;;7.22;5.93;;;;;;;9.31;90.14;95193.97;5135099;27;20091;-69
2022/01/02 02:01:48;;;;;;;7.80;5.88;;;;;;;9.45;89.82;95195.25;5134806;27;20095;-69
2022/01/02 02:04:15;;;;;;;8.25;6.00;;;;;;;9.25;89.79;95185.75;5134564;27;20106;-69
2022/01/02 02:06:41;;;;;;;8.70;6.35;;;;;;;9.41;89.25;95186.56;5134491;27;20031;-69
2022/01/02 02:09:07;;;;;;;8.32;6.45;;;;;;;9.48;88.65;95186.94;5133472;27;20027;-69
2022/01/02 02:11:37;;;;;;;8.63;6.63;;;;;;;9.46;88.74;95183.97;5133253;27;20031;-69
2022/01/02 02:14:06;;;;;;;7.88;6.25;;;;;;;9.59;87.73;95189.13;5134692;27;20379;-69
2022/01/02 02:16:32;;;;;;;7.53;6.28;;;;;;;9.44;88.59;95180.22;5134385;27;20106;-69
2022/01/02 02:18:57;;;;;;;10.40;5.53;;;;;;;9.30;89.48;95181.66;5134517;27;20058;-69
2022/01/02 02:21:31;;;;;;;9.48;6.07;;;;;;;9.45;88.84;95181.72;5134249;27;20027;-69
2022/01/02 02:23:56;;;;;;;8.18;6.47;;;;;;;9.20;90.38;95188.34;5134563;27;20503;-69
2022/01/02 02:26:22;;;;;;;8.45;6.47;;;;;;;9.42;89.18;95182.63;5134181;27;20051;-69
2022/01/02 02:28:47;;;;;;;7.05;5.72;;;;;;;9.34;89.07;95178.78;5134460;27;20379;-69
2022/01/02 02:31:13;;;;;;;8.43;6.18;;;;;;;9.29;89.11;95180.16;5134323;27;20051;-69
2022/01/02 02:33:38;;;;;;;7.55;6.22;;;;;;;9.43;88.77;95189.53;5133116;27;20015;-69
2022/01/02 02:36:04;;;;;;;9.27;6.50;;;;;;;9.35;88.57;95180.28;5134559;27;20034;-69
2022/01/02 02:38:30;;;;;;;7.57;5.95;;;;;;;9.28;88.82;95179.44;5134795;27;20023;-69
2022/01/02 02:40:56;;;;;;;7.57;6.13;;;;;;;9.19;89.46;95182.19;5134042;27;20015;-69
2022/01/02 02:51:52;;;;;;;7.70;6.47;;;;;;;9.29;88.21;95180.16;5133796;28;20031;-69
2022/01/02 02:54:30;;;;;;;8.65;6.00;;;;;;;9.40;87.44;95187.78;5134107;27;20020;-69
2022/01/02 02:57:04;;;;;;;8.30;6.13;;;;;;;9.30;87.80;95193.25;5133853;27;20035;-69
2022/01/02 02:59:35;;;;;;;8.73;6.03;;;;;;;9.40;87.08;95185.06;5133818;27;20019;-69
2022/01/02 03:02:01;;;;;;;7.68;6.28;;;;;;;9.33;87.64;95191.56;5133338;27;20503;-69
2022/01/02 03:04:26;;;;;;;7.38;6.13;;;;;;;9.29;87.83;95202.56;5137888;27;20037;-69
2022/01/02 03:06:52;;;;;;;10.68;5.88;;;;;;;9.33;87.49;95207.09;5138202;27;20023;-69
2022/01/02 03:09:36;;;;;;;8.85;6.10;;;;;;;9.35;87.33;95204.66;5137855;27;20033;-69
2022/01/02 03:12:02;;;;;;;8.98;5.97;;;;;;;9.36;87.33;95200.75;5138282;27;20026;-69
2022/01/02 03:14:28;;;;;;;7.85;5.57;;;;;;;9.16;88.57;95204.75;5138188;27;20394;-69
2022/01/02 03:16:54;;;;;;;7.82;5.97;;;;;;;9.37;87.69;95208.41;5137588;27;20015;-69
2022/01/02 03:19:19;;;;;;;8.32;6.85;;;;;;;9.38;87.61;95215.31;5137628;27;20019;-69
2022/01/02 03:21:45;;;;;;;8.30;6.45;;;;;;;9.19;88.93;95208.50;5137584;27;20019;-69
2022/01/02 03:24:11;;;;;;;9.00;6.97;;;;;;;9.32;88.77;95211.00;5137561;27;20019;-69
2022/01/02 03:26:36;;;;;;;9.50;7.50;;;;;;;9.35;88.16;95215.50;5137493;27;20027;-69
2022/01/02 03:29:02;;;;;;;9.63;6.85;;;;;;;9.41;87.83;95219.06;5136416;27;20379;-69
2022/01/02 03:31:27;;;;;;;7.88;6.20;;;;;;;9.21;88.89;95214.97;5137560;27;20394;-69
2022/01/02 03:33:53;;;;;;;8.15;6.18;;;;;;;9.27;88.82;95215.84;5137547;27;20030;-69
2022/01/02 03:36:18;;;;;;;9.35;6.63;;;;;;;9.35;88.66;95210.81;5137264;27;20091;-69
2022/01/02 03:38:44;;;;;;;9.20;7.10;;;;;;;9.22;89.74;95202.19;5137746;27;20106;-69
2022/01/02 03:41:10;;;;;;;8.18;6.63;;;;;;;9.14;90.23;95201.78;5137152;27;20444;-69
2022/01/02 03:43:35;;;;;;;7.18;6.32;;;;;;;9.23;90.39;95209.84;5137122;27;20464;-69
2022/01/02 03:46:04;;;;;;;12.38;6.75;;;;;;;9.05;91.89;95205.28;5137131;27;20383;-69
2022/01/02 03:48:34;;;;;;;8.85;6.68;;;;;;;9.15;90.54;95211.41;5136002;27;20019;-69
2022/01/02 03:50:59;;;;;;;8.30;6.88;;;;;;;9.20;90.35;95204.59;5137153;27;20019;-69
2022/01/02 03:53:25;;;;;;;9.35;7.03;;;;;;;9.19;90.27;95206.56;5137219;27;20019;-69
2022/01/02 03:55:51;;;;;;;9.30;6.50;;;;;;;9.01;91.43;95201.25;5136938;27;20366;-69
2022/01/02 03:58:16;;;;;;;8.15;6.35;;;;;;;9.01;92.10;95199.28;5137203;27;20371;-69
2022/01/02 04:00:42;;;;;;;9.30;6.72;;;;;;;8.92;92.11;95191.97;5135845;27;20015;-69
2022/01/02 04:03:08;;;;;;;8.48;6.35;;;;;;;9.19;90.42;95197.66;5137025;27;20019;-69
2022/01/02 04:05:33;;;;;;;11.77;7.28;;;;;;;8.82;92.46;95204.06;5136714;27;20091;-69
2022/01/02 04:07:59;;;;;;;8.85;6.50;;;;;;;8.87;92.76;95211.53;5137156;27;20088;-69
2022/01/02 04:10:25;;;;;;;8.63;6.82;;;;;;;8.89;92.60;95203.72;5136517;27;20384;-69
2022/01/02 04:12:50;;;;;;;11.05;7.28;;;;;;;8.86;93.14;95214.69;5136478;27;20023;-69
2022/01/02 04:15:16;;;;;;;8.95;6.93;;;;;;;8.94;92.97;95222.03;5136529;27;20023;-69
2022/01/02 04:17:42;;;;;;;10.70;7.00;;;;;;;9.13;91.52;95224.63;5136723;27;20027;-69
2022/01/02 04:20:13;;;;;;;9.13;7.07;;;;;;;8.98;91.88;95232.69;5135411;27;20114;-69
2022/01/02 04:22:39;;;;;;;10.30;7.38;;;;;;;8.93;92.89;95225.94;5136419;27;20034;-69
2022/01/02 04:25:06;;;;;;;12.18;7.55;;;;;;;8.98;92.99;95235.38;5135311;27;20031;-69
2022/01/02 04:27:32;;;;;;;9.98;6.85;;;;;;;8.83;93.67;95238.00;5135268;27;20019;-69
2022/01/02 04:29:57;;;;;;;14.20;7.03;;;;;;;8.72;95.04;95232.34;5136052;27;20049;-68
2022/01/02 04:32:23;;;;;;;9.15;7.32;;;;;;;8.87;94.05;95238.59;5135216;27;20034;-68
2022/01/02 04:34:48;;;;;;;9.45;6.43;;;;;;;8.86;94.01;95237.13;5136067;27;20019;-68
2022/01/02 04:37:14;;;;;;;9.75;7.10;;;;;;;8.98;93.06;95237.34;5136258;27;20015;-68
2022/01/02 04:39:40;;;;;;;14.38;7.68;;;;;;;8.99;93.50;95234.19;5136223;27;20020;-68
2022/01/02 04:42:07;;;;;;;9.45;7.05;;;;;;;9.00;93.60;95226.81;5136071;27;20107;-68
2022/01/02 04:44:33;;;;;;;10.23;7.47;;;;;;;8.94;94.15;95232.88;5136074;27;20053;-68
2022/01/02 04:46:59;;;;;;;11.93;7.10;;;;;;;9.08;93.88;95241.50;5136164;27;20475;-68
2022/01/02 04:49:24;;;;;;;9.85;7.53;;;;;;;9.02;93.91;95237.94;5135989;27;20114;-68
2022/01/02 04:51:52;;;;;;;10.70;7.45;;;;;;;9.03;94.51;95245.59;5135834;27;20023;-68
2022/01/02 04:54:18;;;;;;;10.32;7.13;;;;;;;8.95;95.69;95244.44;5136033;27;20476;-68
2022/01/02 04:56:43;;;;;;;11.15;7.85;;;;;;;8.87;95.44;95249.41;5135635;27;20074;-68
2022/01/02 04:59:08;;;;;;;9.88;7.40;;;;;;;8.84;95.83;95244.94;5136027;27;20026;-68
2022/01/02 05:01:34;;;;;;;9.15;6.90;;;;;;;8.88;95.92;95250.94;5135637;27;20038;-68
2022/01/02 05:03:59;;;;;;;9.48;6.85;;;;;;;9.04;94.88;95240.91;5135476;27;20372;-68
2022/01/02 05:06:25;;;;;;;8.88;6.95;;;;;;;8.85;96.14;95242.97;5135505;27;20027;-68
2022/01/02 05:08:50;;;;;;;12.55;7.75;;;;;;;8.88;96.02;95245.50;5135465;27;20019;-68
2022/01/02 05:11:17;;;;;;;8.63;6.95;;;;;;;8.85;95.65;95245.66;5135531;27;20050;-69
2022/01/02 05:13:43;;;;;;;10.57;7.30;;;;;;;8.86;96.30;95244.47;5134713;27;20030;-68
2022/01/02 05:16:09;;;;;;;11.75;7.68;;;;;;;8.81;97.15;95240.44;5135597;27;20023;-68
2022/01/02 05:18:34;;;;;;;10.80;8.00;;;;;;;8.93;95.88;95247.59;5135536;27;20092;-68
2022/01/02 05:20:59;;;;;;;9.45;7.47;;;;;;;8.98;95.52;95243.50;5135557;27;20023;-69
2022/01/02 05:23:25;;;;;;;9.57;7.43;;;;;;;8.84;96.14;95246.91;5135573;27;20049;-68
2022/01/02 05:25:52;;;;;;;10.25;6.95;;;;;;;8.83;96.61;95248.84;5134496;27;20102;-68
2022/01/02 05:28:17;;;;;;;9.63;7.28;;;;;;;9.02;95.21;95243.34;5135052;27;20176;-68
2022/01/02 05:30:43;;;;;;;9.98;7.18;;;;;;;9.01;95.11;95247.25;5134221;27;20468;-68
2022/01/02 05:33:10;;;;;;;9.77;7.13;;;;;;;9.00;95.45;95241.09;5135283;27;20160;-68
2022/01/02 05:35:36;;;;;;;11.70;7.35;;;;;;;9.15;94.48;95257.44;5135067;27;20015;-68
2022/01/02 05:38:04;;;;;;;10.10;7.55;;;;;;;9.43;92.57;95254.56;5134942;27;20027;-68
2022/01/02 05:40:31;;;;;;;9.23;7.22;;;;;;;9.30;92.57;95247.41;5134909;27;20030;-68
2022/01/02 05:43:04;;;;;;;12.35;7.97;;;;;;;9.36;92.34;95255.66;5135192;27;20023;-68
2022/01/02 05:45:31;;;;;;;10.82;7.20;;;;;;;9.21;93.14;95257.56;5134863;27;20030;-69
2022/01/02 05:47:57;;;;;;;9.65;7.05;;;;;;;9.08;93.69;95257.75;5135083;27;20047;-69
2022/01/02 05:50:23;;;;;;;10.40;7.57;;;;;;;9.25;92.77;95261.59;5135269;27;20112;-68
2022/01/02 05:52:49;;;;;;;9.38;7.68;;;;;;;9.16;93.20;95256.22;5134784;27;20019;-68
2022/01/02 05:55:14;;;;;;;10.48;7.20;;;;;;;9.04;93.87;95263.34;5134781;27;20026;-68
2022/01/02 05:57:40;;;;;;;12.52;7.55;;;;;;;9.14;93.48;95266.75;5134571;27;20108;-68
2022/01/02 06:00:07;;;;;;;7.95;6.03;;;;;;;8.87;95.09;95254.84;5134622;27;20027;-69
2022/01/02 06:02:33;;;;;;;11.13;6.93;;;;;;;8.93;95.18;95258.44;5133580;27;20027;-69
2022/01/02 06:04:59;;;;;;;8.43;6.25;;;;;;;8.86;95.13;95253.34;5134736;27;20035;-69
2022/01/02 06:07:24;;;;;;;8.93;6.93;;;;;;;8.89;95.15;95263.25;5134284;27;20098;-68
2022/01/02 06:09:50;;;;;;;9.68;6.78;;;;;;;8.98;95.28;95275.25;5134339;27;20437;-67
2022/01/02 06:12:15;;;;;;;8.70;6.15;;;;;;;8.95;95.02;95268.78;5134718;27;20083;-68
2022/01/02 06:14:41;;;;;;;8.10;6.45;;;;;;;8.90;95.05;95270.19;5134163;27;20130;-68
2022/01/02 06:17:06;;;;;;;7.10;5.90;;;;;;;8.70;96.23;95272.63;5133157;27;20031;-69
2022/01/02 06:19:32;;;;;;;6.60;5.68;;;;;;;8.90;95.54;95280.25;5133251;27;20058;-68
2022/01/02 06:21:57;;;;;;;8.75;5.72;;;;;;;8.92;94.53;95273.16;5134114;27;20019;-69
2022/01/02 06:24:23;;;;;;;6.93;5.55;;;;;;;8.88;94.38;95275.28;5134561;27;20034;-68
2022/01/02 06:26:49;;;;;;;8.52;6.05;;;;;;;8.86;94.51;95283.13;5134263;27;20023;-68
2022/01/02 06:29:14;;;;;;;9.57;6.22;;;;;;;8.83;94.64;95280.56;5134430;27;20367;-68
2022/01/02 06:31:40;;;;;;;7.22;5.57;;;;;;;8.79;94.85;95280.72;5134010;27;20112;-68
2022/01/02 06:34:05;;;;;;;9.02;6.00;;;;;;;8.81;94.57;95283.75;5134560;27;20387;-69
2022/01/02 06:36:30;;;;;;;7.72;6.10;;;;;;;8.92;93.84;95292.13;5134197;27;20030;-69
2022/01/02 06:38:56;;;;;;;7.50;6.00;;;;;;;9.03;92.65;95288.91;5133919;27;20023;-70
2022/01/02 06:41:21;;;;;;;8.60;6.15;;;;;;;9.16;91.95;95288.69;5134205;27;20019;-69
2022/01/02 06:43:52;;;;;;;7.72;5.97;;;;;;;9.00;92.79;95297.19;5134076;27;20027;-69
2022/01/02 06:46:20;;;;;;;8.13;5.80;;;;;;;9.09;92.31;95297.16;5134156;27;20429;-69
2022/01/02 06:48:46;;;;;;;6.82;5.65;;;;;;;9.09;92.91;95303.34;5133849;27;20032;-69
2022/01/02 06:51:12;;;;;;;10.18;6.45;;;;;;;8.91;93.50;95303.41;5133743;27;20084;-69
2022/01/02 06:53:38;;;;;;;9.23;5.90;;;;;;;8.94;94.03;95308.66;5133831;27;20031;-69
2022/01/02 06:56:04;;;;;;;7.75;5.65;;;;;;;8.90;93.53;95308.06;5133640;27;20058;-68
2022/01/02 06:58:30;;;;;;;7.85;5.47;;;;;;;9.08;92.68;95312.66;5133923;27;20031;-68
2022/01/02 07:00:56;;;;;;;8.32;5.55;;;;;;;9.10;92.46;95312.94;5133609;27;20023;-68
2022/01/02 07:03:24;;;;;;;7.30;5.07;;;;;;;8.91;93.16;95312.25;5133551;27;20378;-68
2022/01/02 07:05:50;;;;;;;6.80;5.38;;;;;;;8.95;93.49;95310.16;5133520;27;20097;-68
2022/01/02 07:08:16;;;;;;;8.13;5.20;;;;;;;8.99;92.58;95320.09;5133424;27;20054;-69
2022/01/02 07:10:41;;;;;;;7.53;5.30;;;;;;;9.13;91.95;95331.00;5133797;27;20023;-69
2022/01/02 07:13:07;;;;;;;9.25;5.30;;;;;;;9.17;91.45;95320.00;5133506;27;20427;-68
2022/01/02 07:15:32;;;;;;;7.88;5.45;;;;;;;9.28;90.73;95320.28;5133990;27;20098;-68
2022/01/02 07:17:58;;;;;;;5.32;4.82;;;;;;;8.95;92.07;95329.09;5133484;27;20455;-68
2022/01/02 07:20:23;;;;;;;7.65;5.18;;;;;;;9.03;92.45;95323.38;5133511;27;20015;-69
2022/01/02 07:22:49;;;;;;;9.43;5.57;;;;;;;9.01;92.64;95326.50;5133576;27;20482;-69
2022/01/02 07:25:14;;;;;;;8.45;5.50;;;;;;;9.16;91.68;95334.75;5133552;27;20094;-69
2022/01/02 07:27:40;;;;;;;7.15;4.85;;;;;;;9.06;92.09;95341.41;5133860;27;20015;-69
2022/01/02 07:30:07;;;;;;;6.65;5.60;;;;;;;9.49;89.82;95336.72;5133458;27;20027;-69
2022/01/02 07:32:32;;;;;;;6.60;5.10;;;;;;;9.55;89.43;95334.88;5133557;27;20028;-69
2022/01/02 07:34:58;;;;;;;7.10;4.70;;;;;;;9.33;90.30;95348.69;5133951;27;20036;-68
2022/01/02 07:37:23;;;;;;;8.20;5.28;;;;;;;9.41;89.25;95341.72;5133534;27;20448;-68
2022/01/02 07:39:49;;;;;;;6.00;5.03;;;;;;;9.22;90.81;95343.75;5132281;28;20018;-68
2022/01/02 07:42:14;;;;;;;6.10;4.88;;;;;;;9.22;90.62;95343.75;5133179;27;20042;-68
2022/01/02 07:44:40;;;;;;;6.47;4.55;;;;;;;9.50;89.54;95340.91;5132249;28;20073;-69
2022/01/02 07:47:06;;;;;;;7.68;5.38;;;;;;;9.50;89.81;95342.88;5133391;27;20030;-69
2022/01/02 07:49:32;;;;;;;8.73;5.85;;;;;;;9.68;89.06;95345.50;5136128;27;20015;-69
2022/01/02 07:51:57;;;;;;;9.40;5.97;;;;;;;9.21;90.84;95339.53;5135997;27;20103;-68
2022/01/02 07:54:23;;;;;;;5.95;5.10;;;;;;;9.35;90.95;95340.84;5137098;27;20023;-68
2022/01/02 07:56:48;;;;;;;8.32;5.55;;;;;;;9.32;90.95;95343.72;5136897;27;20075;-69
2022/01/02 07:59:14;;;;;;;9.40;6.05;;;;;;;9.25;91.41;95337.41;5136935;27;20387;-69
2022/01/02 08:01:39;;;;;;;9.93;5.70;;;;;;;9.24;91.99;95335.16;5137431;27;20019;-69
2022/01/02 08:04:05;;;;;;;8.45;5.57;;;;;;;9.42;90.62;95343.22;5136771;27;20034;-69
2022/01/02 08:06:30;;;;;;;9.07;6.20;;;;;;;9.49;90.61;95344.84;5137429;27;20030;-69
2022/01/02 08:08:56;;;;;;;7.15;5.72;;;;;;;9.51;89.45;95342.44;5136737;27;20034;-69
2022/01/02 08:11:22;;;;;;;9.68;5.60;;;;;;;9.40;89.80;95342.19;5135523;27;20503;-69
2022/01/02 08:13:47;;;;;;;9.50;5.10;;;;;;;9.48;89.21;95340.63;5136579;27;20464;-69
2022/01/02 08:16:13;;;;;;;8.18;5.85;;;;;;;9.73;87.69;95349.53;5136808;27;20023;-69
2022/01/02 08:18:40;;;;;;;7.72;5.07;;;;;;;9.59;88.02;95346.28;5136473;27;20056;-69
2022/01/02 08:21:06;;;;;;;10.15;5.28;;;;;;;9.64;87.73;95355.78;5136775;27;20026;-69
2022/01/02 08:23:32;;;;;;;7.05;5.18;;;;;;;9.68;87.77;95358.28;5136972;27;20045;-69
2022/01/02 08:25:58;;;;;;;6.72;5.03;;;;;;;9.83;86.46;95361.84;5135430;27;20026;-69
2022/01/02 08:28:23;;;;;;;6.65;5.30;;;;;;;9.69;87.19;95346.25;5136353;27;20030;-68
2022/01/02 08:30:49;;;;;;;9.52;5.65;;;;;;;9.97;86.04;95361.13;5136270;27;20387;-68
2022/01/02 08:33:15;;;;;;;8.00;5.57;;;;;;;9.86;86.76;95350.06;5135364;27;20488;-68
2022/01/02 08:35:42;;;;;;;6.60;5.03;;;;;;;10.15;84.55;95348.66;5136597;27;20106;-69
2022/01/02 08:38:08;;;;;;;7.05;5.20;;;;;;;10.38;83.38;95344.44;5135197;27;20037;-69
2022/01/02 08:40:35;;;;;;;8.18;4.88;;;;;;;10.75;80.79;95354.22;5136286;27;20015;-69
2022/01/02 08:43:01;;;;;;;6.88;4.70;;;;;;;11.06;77.89;95355.75;5136106;27;20038;-69
2022/01/02 08:45:26;;;;;;;5.97;4.40;;;;;;;10.63;79.78;95358.72;5135068;27;20035;-69
2022/01/02 08:47:52;;;;;;;5.82;4.85;;;;;;;10.76;78.47;95356.47;5136318;27;20057;-68
2022/01/02 08:50:17;;;;;;;5.45;4.75;;;;;;;11.55;73.98;95348.81;5136129;27;20023;-69
2022/01/02 08:52:43;;;;;;;5.28;4.10;;;;;;;11.79;72.61;95350.63;5136235;27;20019;-68
2022/01/02 08:55:08;;;;;;;7.68;4.97;;;;;;;12.50;68.99;95364.09;5136130;27;20432;-69
2022/01/02 08:57:34;;;;;;;5.43;3.85;;;;;;;11.86;70.11;95352.94;5135754;27;20047;-68
2022/01/02 09:00:00;;;;;;;4.43;3.53;;;;;;;11.87;69.36;95353.69;5134631;27;20034;-69
2022/01/02 09:02:25;;;;;;;4.60;3.90;;;;;;;12.33;67.14;95361.94;5136258;27;20056;-70
2022/01/02 09:04:50;;;;;;;4.90;3.78;;;;;;;13.02;64.29;95366.84;5135790;27;20032;-69
2022/01/02 09:07:16;;;;;;;4.30;3.70;;;;;;;13.71;61.80;95370.09;5135612;27;20110;-69
2022/01/02 09:09:41;;;;;;;5.30;3.85;;;;;;;14.84;57.05;95367.84;5135629;27;20027;-68
2022/01/02 09:12:08;;;;;;;4.45;3.70;;;;;;;14.52;57.79;95352.34;5135467;27;20095;-69
2022/01/02 09:14:33;;;;;;;4.30;3.20;;;;;;;15.37;54.83;95357.91;5136039;27;20471;-68
2022/01/02 09:16:59;;;;;;;4.53;3.40;;;;;;;15.18;55.01;95349.47;5135390;27;20027;-68
2022/01/02 09:19:25;;;;;;;5.80;3.00;;;;;;;16.32;51.28;95366.44;5135221;27;20070;-68
2022/01/02 09:21:50;;;;;;;4.57;3.33;;;;;;;15.75;52.32;95349.44;5135421;27;20027;-68
2022/01/02 09:24:16;;;;;;;4.53;3.75;;;;;;;15.82;52.33;95353.69;5135289;27;20027;-68
2022/01/02 09:26:41;;;;;;;4.43;3.45;;;;;;;14.69;54.61;95329.81;5135113;27;20027;-68
2022/01/02 09:29:07;;;;;;;4.93;3.30;;;;;;;15.54;52.57;95335.28;5135254;27;20054;-69
2022/01/02 09:31:32;;;;;;;5.30;3.35;;;;;;;15.37;52.59;95327.84;5135238;27;20023;-68
2022/01/02 09:33:58;;;;;;;3.38;2.92;;;;;;;17.61;46.63;95330.44;5135057;27;20031;-68
2022/01/02 09:36:23;;;;;;;6.07;3.50;;;;;;;17.40;47.70;95319.19;5133967;27;20023;-65
2022/01/02 09:38:50;;;;;;;4.28;3.15;;;;;;;16.52;50.22;95318.81;5134794;27;20432;-65
2022/01/02 09:41:18;;;;;;;3.33;3.00;;;;;;;17.33;47.94;95312.25;5135328;27;20079;-66
2022/01/02 09:43:44;;;;;;;5.25;3.05;;;;;;;18.38;46.17;95309.41;5135016;27;20022;-65
2022/01/02 09:46:11;;;;;;;4.35;3.35;;;;;;;17.03;46.77;95296.56;5133684;27;20030;-68
2022/01/02 09:48:37;;;;;;;4.55;3.40;;;;;;;16.75;47.52;95301.47;5135216;27;20050;-68
2022/01/02 09:51:03;;;;;;;4.10;2.95;;;;;;;16.62;47.78;95293.81;5133795;27;20134;-68
2022/01/02 09:53:28;;;;;;;4.05;3.05;;;;;;;16.08;49.42;95278.69;5134479;27;20448;-68
2022/01/02 09:55:54;;;;;;;7.70;3.67;;;;;;;16.01;49.03;95277.22;5134618;27;20066;-68
2022/01/02 09:58:20;;;;;;;3.92;3.28;;;;;;;15.97;49.01;95279.50;5134575;27;20034;-68
2022/01/02 10:00:48;;;;;;;4.18;3.20;;;;;;;15.86;49.47;95277.53;5134415;27;20027;-68
2022/01/02 10:03:14;;;;;;;3.60;3.03;;;;;;;17.56;45.78;95284.59;5135004;27;20031;-68
2022/01/02 10:05:53;;;;;;;5.20;3.53;;;;;;;17.39;45.64;95279.28;5134720;27;20375;-68
2022/01/02 10:08:26;;;;;;;4.90;3.55;;;;;;;16.97;46.51;95284.88;5133009;27;20042;-68
2022/01/02 10:11:15;;;;;;;6.57;3.30;;;;;;;16.13;48.45;95272.44;5134081;27;20063;-67
2022/01/02 10:13:44;;;;;;;4.32;3.38;;;;;;;16.67;47.95;95269.13;5134712;27;20049;-68
2022/01/02 10:16:39;;;;;;;3.80;3.00;;;;;;;16.46;48.23;95270.78;5134226;27;20071;-67
2022/01/02 10:19:29;;;;;;;3.08;2.78;;;;;;;15.67;50.36;95267.13;5134609;27;20027;-68
2022/01/02 10:22:00;;;;;;;4.80;3.28;;;;;;;16.18;49.59;95258.72;5134864;27;20482;-68
2022/01/02 10:24:28;;;;;;;3.78;3.28;;;;;;;16.14;48.88;95262.97;5133227;27;20034;-68
2022/01/02 10:27:09;;;;;;;4.15;3.08;;;;;;;17.23;45.85;95261.72;5134011;27;20114;-68
2022/01/02 10:29:54;;;;;;;4.22;3.25;;;;;;;17.45;45.38;95254.53;5134362;27;20030;-68
2022/01/02 10:32:31;;;;;;;5.60;3.00;;;;;;;16.60;46.92;95255.97;5134344;27;20050;-68
2022/01/02 10:35:07;;;;;;;3.97;2.80;;;;;;;14.59;52.20;95236.41;5133888;27;20023;-67
2022/01/02 10:37:33;;;;;;;4.25;3.13;;;;;;;14.59;53.47;95222.00;5133241;27;20340;-68
2022/01/02 10:39:58;;;;;;;3.45;2.80;;;;;;;14.43;53.58;95218.03;5133859;27;20129;-67
2022/01/02 10:42:24;;;;;;;4.55;2.67;;;;;;;13.87;55.30;95224.88;5133856;27;20091;-67
2022/01/02 10:44:49;;;;;;;4.55;2.70;;;;;;;13.82;55.33;95222.84;5134355;27;20029;-67
2022/01/02 10:47:20;;;;;;;3.95;2.67;;;;;;;13.30;57.25;95219.13;5133825;27;20355;-68
2022/01/02 10:50:08;;;;;;;2.78;2.42;;;;;;;12.91;58.75;95205.28;5134258;27;20363;-68
2022/01/02 10:52:45;;;;;;;3.05;2.63;;;;;;;12.96;58.20;95205.31;5133974;27;20019;-68
2022/01/02 10:55:20;;;;;;;3.25;2.30;;;;;;;12.83;58.34;95207.72;5134511;27;20030;-68
2022/01/02 10:57:47;;;;;;;3.78;2.63;;;;;;;12.24;61.51;95206.22;5132727;28;20100;-68
2022/01/02 11:00:15;;;;;;;3.20;2.80;;;;;;;12.29;61.91;95214.44;5115932;28;20019;-67
2022/01/02 11:02:41;;;;;;;3.35;2.63;;;;;;;12.04;62.91;95209.75;5133758;27;20023;-67
2022/01/02 11:05:10;;;;;;;5.63;2.58;;;;;;;12.05;62.72;95211.97;5133721;27;20527;-67
2022/01/02 11:07:44;;;;;;;4.30;2.80;;;;;;;12.31;62.51;95212.00;5134341;27;20038;-68
2022/01/02 11:10:11;;;;;;;4.45;2.88;;;;;;;12.46;61.89;95200.22;5133845;27;20439;-68
2022/01/02 11:12:39;;;;;;;5.70;2.90;;;;;;;12.04;63.37;95198.88;5134069;27;20356;-68
2022/01/02 11:15:07;;;;;;;4.13;3.03;;;;;;;12.03;63.70;95192.69;5133685;27;20031;-68
2022/01/02 11:17:33;;;;;;;5.65;2.75;;;;;;;12.05;63.73;95190.22;5133593;27;20023;-68
2022/01/02 11:19:59;;;;;;;7.45;2.97;;;;;;;11.94;63.61;95190.09;5133570;27;20103;-68
2022/01/02 11:22:31;;;;;;;4.07;2.95;;;;;;;12.13;63.24;95180.44;5132495;27;20011;-68
2022/01/02 11:25:41;;;;;;;6.18;2.88;;;;;;;12.01;63.57;95178.81;5137503;27;20027;-67
2022/01/02 11:28:13;;;;;;;2.95;2.50;;;;;;;11.79;63.75;95168.44;5107792;27;20073;-68
2022/01/02 11:30:41;;;;;;;3.63;2.55;;;;;;;11.92;63.58;95168.06;5137742;27;20031;-68
2022/01/02 11:33:08;;;;;;;6.18;2.88;;;;;;;12.05;63.40;95159.56;5137339;27;20367;-68
2022/01/02 11:35:35;;;;;;;3.42;2.70;;;;;;;11.92;64.47;95166.09;5137557;27;20027;-68
2022/01/02 11:38:02;;;;;;;5.22;3.42;;;;;;;12.03;64.52;95170.19;5137181;27;20080;-68
2022/01/02 11:40:47;;;;;;;6.28;3.30;;;;;;;12.16;63.71;95168.56;5137181;27;20098;-68
2022/01/02 11:43:38;;;;;;;5.78;2.67;;;;;;;12.03;63.59;95165.47;5137418;27;20087;-68
2022/01/02 11:46:20;;;;;;;3.80;2.90;;;;;;;12.28;62.85;95163.97;5137379;27;20023;-68
2022/01/02 11:49:13;;;;;;;7.65;3.45;;;;;;;12.27;62.92;95162.50;5136071;27;20383;-68
2022/01/02 11:51:48;;;;;;;6.40;3.20;;;;;;;12.46;62.55;95154.72;5137094;27;20516;-68